sensor_id;sensor_type;location;lat;lon;timestamp;P1;durP1;ratioP1;P2;durP2;ratioP2
53010;SDS011;42803;55.762;38.084;2022-07-17T00:00:34;13.25;;;7.63;;
53010;SDS011;42803;55.762;38.084;2022-07-17T00:03:03;12.93;;;6.85;;
53010;SDS011;42803;55.762;38.084;2022-07-17T00:05:32;14.15;;;6.70;;
53010;SDS011;42803;55.762;38.084;2022-07-17T00:08:04;10.77;;;6.80;;
53010;SDS011;42803;55.762;38.084;2022-07-17T00:10:33;13.82;;;6.80;;
53010;SDS011;42803;55.762;38.084;2022-07-17T00:13:03;12.38;;;6.50;;
53010;SDS011;42803;55.762;38.084;2022-07-17T00:15:33;14.00;;;6.95;;
53010;SDS011;42803;55.762;38.084;2022-07-17T00:18:03;12.63;;;6.82;;
53010;SDS011;42803;55.762;38.084;2022-07-17T00:20:33;14.65;;;6.32;;
53010;SDS011;42803;55.762;38.084;2022-07-17T00:23:04;16.30;;;6.95;;
53010;SDS011;42803;55.762;38.084;2022-07-17T00:25:33;9.93;;;6.00;;
53010;SDS011;42803;55.762;38.084;2022-07-17T00:28:02;16.60;;;7.13;;
53010;SDS011;42803;55.762;38.084;2022-07-17T00:30:33;9.13;;;5.78;;
53010;SDS011;42803;55.762;38.084;2022-07-17T00:33:01;9.45;;;5.70;;
53010;SDS011;42803;55.762;38.084;2022-07-17T00:35:31;11.18;;;6.03;;
53010;SDS011;42803;55.762;38.084;2022-07-17T00:38:00;11.02;;;5.88;;
53010;SDS011;42803;55.762;38.084;2022-07-17T00:40:30;10.07;;;5.90;;
53010;SDS011;42803;55.762;38.084;2022-07-17T00:42:59;11.05;;;5.38;;
53010;SDS011;42803;55.762;38.084;2022-07-17T00:45:28;11.98;;;5.57;;
53010;SDS011;42803;55.762;38.084;2022-07-17T00:47:57;13.50;;;6.13;;
53010;SDS011;42803;55.762;38.084;2022-07-17T00:50:29;9.70;;;6.20;;
53010;SDS011;42803;55.762;38.084;2022-07-17T00:52:59;15.68;;;7.13;;
53010;SDS011;42803;55.762;38.084;2022-07-17T00:55:30;10.90;;;6.40;;
53010;SDS011;42803;55.762;38.084;2022-07-17T00:58:18;15.15;;;6.90;;
53010;SDS011;42803;55.762;38.084;2022-07-17T01:00:49;14.38;;;7.70;;
53010;SDS011;42803;55.762;38.084;2022-07-17T01:03:20;14.70;;;9.40;;
53010;SDS011;42803;55.762;38.084;2022-07-17T01:05:50;12.43;;;5.88;;
53010;SDS011;42803;55.762;38.084;2022-07-17T01:08:20;11.23;;;6.25;;
53010;SDS011;42803;55.762;38.084;2022-07-17T01:10:50;14.63;;;7.25;;
53010;SDS011;42803;55.762;38.084;2022-07-17T01:13:20;10.20;;;6.72;;
53010;SDS011;42803;55.762;38.084;2022-07-17T01:15:49;26.35;;;11.90;;
53010;SDS011;42803;55.762;38.084;2022-07-17T01:18:18;19.75;;;11.13;;
53010;SDS011;42803;55.762;38.084;2022-07-17T01:20:47;17.95;;;10.10;;
53010;SDS011;42803;55.762;38.084;2022-07-17T01:23:19;22.77;;;11.18;;
53010;SDS011;42803;55.762;38.084;2022-07-17T01:25:48;17.08;;;8.82;;
53010;SDS011;42803;55.762;38.084;2022-07-17T01:28:17;17.63;;;8.50;;
53010;SDS011;42803;55.762;38.084;2022-07-17T01:30:47;15.50;;;8.90;;
53010;SDS011;42803;55.762;38.084;2022-07-17T01:33:18;15.32;;;7.88;;
53010;SDS011;42803;55.762;38.084;2022-07-17T01:35:50;31.48;;;15.02;;
53010;SDS011;42803;55.762;38.084;2022-07-17T01:38:21;19.05;;;10.95;;
53010;SDS011;42803;55.762;38.084;2022-07-17T01:40:50;18.00;;;8.98;;
53010;SDS011;42803;55.762;38.084;2022-07-17T01:43:19;22.30;;;12.25;;
53010;SDS011;42803;55.762;38.084;2022-07-17T01:45:49;19.23;;;9.88;;
53010;SDS011;42803;55.762;38.084;2022-07-17T01:48:24;23.55;;;10.35;;
53010;SDS011;42803;55.762;38.084;2022-07-17T01:50:54;16.15;;;7.78;;
53010;SDS011;42803;55.762;38.084;2022-07-17T01:53:25;13.48;;;6.22;;
53010;SDS011;42803;55.762;38.084;2022-07-17T01:55:54;11.82;;;6.97;;
53010;SDS011;42803;55.762;38.084;2022-07-17T01:58:23;19.30;;;8.88;;
53010;SDS011;42803;55.762;38.084;2022-07-17T02:00:52;13.30;;;7.53;;
53010;SDS011;42803;55.762;38.084;2022-07-17T02:03:22;20.75;;;10.90;;
53010;SDS011;42803;55.762;38.084;2022-07-17T02:05:51;28.70;;;13.57;;
53010;SDS011;42803;55.762;38.084;2022-07-17T02:08:21;15.50;;;7.50;;
53010;SDS011;42803;55.762;38.084;2022-07-17T02:10:51;23.92;;;13.00;;
53010;SDS011;42803;55.762;38.084;2022-07-17T02:13:20;22.00;;;12.45;;
53010;SDS011;42803;55.762;38.084;2022-07-17T02:15:49;22.90;;;13.20;;
53010;SDS011;42803;55.762;38.084;2022-07-17T02:18:19;17.25;;;8.60;;
53010;SDS011;42803;55.762;38.084;2022-07-17T02:20:48;11.75;;;7.13;;
53010;SDS011;42803;55.762;38.084;2022-07-17T02:23:17;9.00;;;6.15;;
53010;SDS011;42803;55.762;38.084;2022-07-17T02:25:46;18.83;;;9.40;;
53010;SDS011;42803;55.762;38.084;2022-07-17T02:28:16;11.48;;;6.00;;
53010;SDS011;42803;55.762;38.084;2022-07-17T02:30:45;15.32;;;8.10;;
53010;SDS011;42803;55.762;38.084;2022-07-17T02:33:15;18.25;;;9.48;;
53010;SDS011;42803;55.762;38.084;2022-07-17T02:35:44;17.83;;;9.05;;
53010;SDS011;42803;55.762;38.084;2022-07-17T02:38:13;24.58;;;10.07;;
53010;SDS011;42803;55.762;38.084;2022-07-17T02:40:42;18.23;;;8.80;;
53010;SDS011;42803;55.762;38.084;2022-07-17T02:43:12;23.98;;;11.60;;
53010;SDS011;42803;55.762;38.084;2022-07-17T02:45:42;12.98;;;7.30;;
53010;SDS011;42803;55.762;38.084;2022-07-17T02:48:12;28.45;;;11.77;;
53010;SDS011;42803;55.762;38.084;2022-07-17T02:50:41;29.80;;;13.95;;
53010;SDS011;42803;55.762;38.084;2022-07-17T02:53:10;14.38;;;6.72;;
53010;SDS011;42803;55.762;38.084;2022-07-17T02:55:39;18.45;;;7.35;;
53010;SDS011;42803;55.762;38.084;2022-07-17T02:58:09;14.75;;;7.90;;
53010;SDS011;42803;55.762;38.084;2022-07-17T03:00:38;21.48;;;10.25;;
53010;SDS011;42803;55.762;38.084;2022-07-17T03:03:09;32.08;;;12.77;;
53010;SDS011;42803;55.762;38.084;2022-07-17T03:05:38;15.40;;;7.68;;
53010;SDS011;42803;55.762;38.084;2022-07-17T03:08:07;10.32;;;6.50;;
53010;SDS011;42803;55.762;38.084;2022-07-17T03:10:36;25.58;;;12.52;;
53010;SDS011;42803;55.762;38.084;2022-07-17T03:13:05;23.20;;;13.32;;
53010;SDS011;42803;55.762;38.084;2022-07-17T03:15:34;24.77;;;12.23;;
53010;SDS011;42803;55.762;38.084;2022-07-17T03:18:03;21.27;;;10.23;;
53010;SDS011;42803;55.762;38.084;2022-07-17T03:20:34;13.27;;;7.63;;
53010;SDS011;42803;55.762;38.084;2022-07-17T03:23:04;15.02;;;8.95;;
53010;SDS011;42803;55.762;38.084;2022-07-17T03:25:33;15.45;;;7.80;;
53010;SDS011;42803;55.762;38.084;2022-07-17T03:28:02;10.43;;;5.90;;
53010;SDS011;42803;55.762;38.084;2022-07-17T03:30:31;11.18;;;6.47;;
53010;SDS011;42803;55.762;38.084;2022-07-17T03:33:00;25.10;;;13.95;;
53010;SDS011;42803;55.762;38.084;2022-07-17T03:35:30;13.40;;;7.10;;
53010;SDS011;42803;55.762;38.084;2022-07-17T03:38:00;19.70;;;9.00;;
53010;SDS011;42803;55.762;38.084;2022-07-17T03:40:29;13.55;;;7.70;;
53010;SDS011;42803;55.762;38.084;2022-07-17T03:42:58;21.42;;;11.88;;
53010;SDS011;42803;55.762;38.084;2022-07-17T03:45:27;15.13;;;8.05;;
53010;SDS011;42803;55.762;38.084;2022-07-17T03:47:57;16.13;;;10.68;;
53010;SDS011;42803;55.762;38.084;2022-07-17T03:50:26;15.18;;;8.55;;
53010;SDS011;42803;55.762;38.084;2022-07-17T03:52:55;22.27;;;12.98;;
53010;SDS011;42803;55.762;38.084;2022-07-17T03:55:25;19.58;;;9.25;;
53010;SDS011;42803;55.762;38.084;2022-07-17T03:57:55;14.05;;;9.20;;
53010;SDS011;42803;55.762;38.084;2022-07-17T04:00:23;14.77;;;8.82;;
53010;SDS011;42803;55.762;38.084;2022-07-17T04:02:53;21.17;;;11.57;;
53010;SDS011;42803;55.762;38.084;2022-07-17T04:05:22;16.77;;;10.90;;
53010;SDS011;42803;55.762;38.084;2022-07-17T04:07:51;19.95;;;11.18;;
53010;SDS011;42803;55.762;38.084;2022-07-17T04:10:20;18.30;;;11.70;;
53010;SDS011;42803;55.762;38.084;2022-07-17T04:12:50;17.10;;;10.27;;
53010;SDS011;42803;55.762;38.084;2022-07-17T04:15:19;16.35;;;9.50;;
53010;SDS011;42803;55.762;38.084;2022-07-17T04:18:02;16.52;;;10.50;;
53010;SDS011;42803;55.762;38.084;2022-07-17T04:20:31;15.07;;;8.77;;
53010;SDS011;42803;55.762;38.084;2022-07-17T04:23:00;17.33;;;8.30;;
53010;SDS011;42803;55.762;38.084;2022-07-17T04:25:30;15.63;;;8.75;;
53010;SDS011;42803;55.762;38.084;2022-07-17T04:28:00;13.38;;;7.93;;
53010;SDS011;42803;55.762;38.084;2022-07-17T04:30:30;14.73;;;8.35;;
53010;SDS011;42803;55.762;38.084;2022-07-17T04:32:59;12.75;;;8.10;;
53010;SDS011;42803;55.762;38.084;2022-07-17T04:35:29;15.07;;;9.15;;
53010;SDS011;42803;55.762;38.084;2022-07-17T04:37:58;13.38;;;8.43;;
53010;SDS011;42803;55.762;38.084;2022-07-17T04:40:33;16.63;;;8.52;;
53010;SDS011;42803;55.762;38.084;2022-07-17T04:43:05;13.05;;;6.93;;
53010;SDS011;42803;55.762;38.084;2022-07-17T04:45:34;12.98;;;7.18;;
53010;SDS011;42803;55.762;38.084;2022-07-17T04:48:03;10.15;;;5.72;;
53010;SDS011;42803;55.762;38.084;2022-07-17T04:50:33;11.18;;;6.13;;
53010;SDS011;42803;55.762;38.084;2022-07-17T04:53:02;13.23;;;5.80;;
53010;SDS011;42803;55.762;38.084;2022-07-17T04:55:31;13.73;;;5.35;;
53010;SDS011;42803;55.762;38.084;2022-07-17T04:58:00;8.82;;;4.95;;
53010;SDS011;42803;55.762;38.084;2022-07-17T05:00:31;7.18;;;4.22;;
53010;SDS011;42803;55.762;38.084;2022-07-17T05:03:00;7.30;;;4.15;;
53010;SDS011;42803;55.762;38.084;2022-07-17T05:05:29;7.55;;;4.45;;
53010;SDS011;42803;55.762;38.084;2022-07-17T05:07:58;9.13;;;3.88;;
53010;SDS011;42803;55.762;38.084;2022-07-17T05:10:27;7.28;;;4.05;;
53010;SDS011;42803;55.762;38.084;2022-07-17T05:12:56;7.30;;;3.53;;
53010;SDS011;42803;55.762;38.084;2022-07-17T05:15:25;7.07;;;3.92;;
53010;SDS011;42803;55.762;38.084;2022-07-17T05:17:56;9.82;;;3.92;;
53010;SDS011;42803;55.762;38.084;2022-07-17T05:20:25;13.65;;;3.22;;
53010;SDS011;42803;55.762;38.084;2022-07-17T05:22:54;5.65;;;3.17;;
53010;SDS011;42803;55.762;38.084;2022-07-17T05:25:23;5.10;;;3.28;;
53010;SDS011;42803;55.762;38.084;2022-07-17T05:27:52;8.27;;;3.03;;
53010;SDS011;42803;55.762;38.084;2022-07-17T05:30:21;5.35;;;3.35;;
53010;SDS011;42803;55.762;38.084;2022-07-17T05:32:50;10.32;;;3.42;;
53010;SDS011;42803;55.762;38.084;2022-07-17T05:35:21;11.23;;;3.80;;
53010;SDS011;42803;55.762;38.084;2022-07-17T05:37:53;7.00;;;3.53;;
53010;SDS011;42803;55.762;38.084;2022-07-17T05:40:22;6.05;;;3.40;;
53010;SDS011;42803;55.762;38.084;2022-07-17T05:42:53;5.05;;;2.92;;
53010;SDS011;42803;55.762;38.084;2022-07-17T05:45:22;5.93;;;3.55;;
53010;SDS011;42803;55.762;38.084;2022-07-17T05:47:51;6.22;;;3.58;;
53010;SDS011;42803;55.762;38.084;2022-07-17T05:50:21;4.65;;;3.53;;
53010;SDS011;42803;55.762;38.084;2022-07-17T05:52:50;7.65;;;3.83;;
53010;SDS011;42803;55.762;38.084;2022-07-17T05:55:22;9.25;;;4.25;;
53010;SDS011;42803;55.762;38.084;2022-07-17T05:57:54;12.45;;;5.50;;
53010;SDS011;42803;55.762;38.084;2022-07-17T06:00:23;6.65;;;3.78;;
53010;SDS011;42803;55.762;38.084;2022-07-17T06:02:54;6.85;;;3.28;;
53010;SDS011;42803;55.762;38.084;2022-07-17T06:05:31;10.20;;;3.50;;
53010;SDS011;42803;55.762;38.084;2022-07-17T06:08:07;6.55;;;3.13;;
53010;SDS011;42803;55.762;38.084;2022-07-17T06:10:39;7.43;;;3.58;;
53010;SDS011;42803;55.762;38.084;2022-07-17T06:13:08;8.98;;;3.60;;
53010;SDS011;42803;55.762;38.084;2022-07-17T06:15:37;9.45;;;3.47;;
53010;SDS011;42803;55.762;38.084;2022-07-17T06:18:11;8.32;;;3.30;;
53010;SDS011;42803;55.762;38.084;2022-07-17T06:20:43;6.25;;;3.03;;
53010;SDS011;42803;55.762;38.084;2022-07-17T06:23:12;7.07;;;2.80;;
53010;SDS011;42803;55.762;38.084;2022-07-17T06:25:45;5.95;;;2.83;;
53010;SDS011;42803;55.762;38.084;2022-07-17T06:28:14;6.45;;;2.58;;
53010;SDS011;42803;55.762;38.084;2022-07-17T06:30:44;6.13;;;2.88;;
53010;SDS011;42803;55.762;38.084;2022-07-17T06:33:13;7.22;;;2.80;;
53010;SDS011;42803;55.762;38.084;2022-07-17T06:35:44;8.32;;;3.70;;
53010;SDS011;42803;55.762;38.084;2022-07-17T06:38:13;5.95;;;3.78;;
53010;SDS011;42803;55.762;38.084;2022-07-17T06:40:42;6.68;;;3.95;;
53010;SDS011;42803;55.762;38.084;2022-07-17T06:43:11;6.82;;;3.30;;
53010;SDS011;42803;55.762;38.084;2022-07-17T06:45:43;5.60;;;3.45;;
53010;SDS011;42803;55.762;38.084;2022-07-17T06:48:12;8.95;;;4.53;;
53010;SDS011;42803;55.762;38.084;2022-07-17T06:50:42;7.95;;;3.95;;
53010;SDS011;42803;55.762;38.084;2022-07-17T06:53:12;6.15;;;3.50;;
53010;SDS011;42803;55.762;38.084;2022-07-17T06:55:42;8.07;;;3.50;;
53010;SDS011;42803;55.762;38.084;2022-07-17T06:58:11;6.20;;;3.33;;
53010;SDS011;42803;55.762;38.084;2022-07-17T07:00:40;5.63;;;3.22;;
53010;SDS011;42803;55.762;38.084;2022-07-17T07:03:09;5.85;;;2.60;;
53010;SDS011;42803;55.762;38.084;2022-07-17T07:05:39;4.85;;;2.38;;
53010;SDS011;42803;55.762;38.084;2022-07-17T07:08:10;4.68;;;2.05;;
53010;SDS011;42803;55.762;38.084;2022-07-17T07:10:39;7.30;;;1.80;;
53010;SDS011;42803;55.762;38.084;2022-07-17T07:13:10;3.35;;;1.83;;
53010;SDS011;42803;55.762;38.084;2022-07-17T07:15:40;5.82;;;1.77;;
53010;SDS011;42803;55.762;38.084;2022-07-17T07:18:09;5.15;;;1.50;;
53010;SDS011;42803;55.762;38.084;2022-07-17T07:20:38;3.60;;;1.52;;
53010;SDS011;42803;55.762;38.084;2022-07-17T07:23:07;4.43;;;1.13;;
53010;SDS011;42803;55.762;38.084;2022-07-17T07:25:38;1.95;;;1.15;;
53010;SDS011;42803;55.762;38.084;2022-07-17T07:28:07;2.10;;;1.20;;
53010;SDS011;42803;55.762;38.084;2022-07-17T07:30:36;2.78;;;1.20;;
53010;SDS011;42803;55.762;38.084;2022-07-17T07:33:05;2.58;;;1.17;;
53010;SDS011;42803;55.762;38.084;2022-07-17T07:35:34;0.85;;;0.73;;
53010;SDS011;42803;55.762;38.084;2022-07-17T07:38:04;1.63;;;0.88;;
53010;SDS011;42803;55.762;38.084;2022-07-17T07:40:34;2.47;;;0.98;;
53010;SDS011;42803;55.762;38.084;2022-07-17T07:43:04;1.48;;;0.90;;
53010;SDS011;42803;55.762;38.084;2022-07-17T07:45:33;1.67;;;0.70;;
53010;SDS011;42803;55.762;38.084;2022-07-17T07:48:03;1.08;;;0.77;;
53010;SDS011;42803;55.762;38.084;2022-07-17T07:50:33;1.63;;;0.80;;
53010;SDS011;42803;55.762;38.084;2022-07-17T07:53:02;4.15;;;1.15;;
53010;SDS011;42803;55.762;38.084;2022-07-17T07:55:31;3.53;;;1.27;;
53010;SDS011;42803;55.762;38.084;2022-07-17T07:58:05;2.88;;;1.05;;
53010;SDS011;42803;55.762;38.084;2022-07-17T08:00:36;1.25;;;0.93;;
53010;SDS011;42803;55.762;38.084;2022-07-17T08:03:06;2.75;;;1.20;;
53010;SDS011;42803;55.762;38.084;2022-07-17T08:05:35;1.67;;;0.95;;
53010;SDS011;42803;55.762;38.084;2022-07-17T08:08:04;2.30;;;1.05;;
53010;SDS011;42803;55.762;38.084;2022-07-17T08:10:34;1.73;;;0.80;;
53010;SDS011;42803;55.762;38.084;2022-07-17T08:13:04;1.88;;;0.73;;
53010;SDS011;42803;55.762;38.084;2022-07-17T08:15:34;1.17;;;0.90;;
53010;SDS011;42803;55.762;38.084;2022-07-17T08:18:04;1.05;;;0.90;;
53010;SDS011;42803;55.762;38.084;2022-07-17T08:20:33;1.33;;;0.80;;
53010;SDS011;42803;55.762;38.084;2022-07-17T08:23:02;1.35;;;0.82;;
53010;SDS011;42803;55.762;38.084;2022-07-17T08:25:33;1.30;;;0.73;;
53010;SDS011;42803;55.762;38.084;2022-07-17T08:28:05;1.88;;;0.90;;
53010;SDS011;42803;55.762;38.084;2022-07-17T08:30:34;1.10;;;0.82;;
53010;SDS011;42803;55.762;38.084;2022-07-17T08:33:04;2.10;;;1.00;;
53010;SDS011;42803;55.762;38.084;2022-07-17T08:35:34;3.55;;;0.70;;
53010;SDS011;42803;55.762;38.084;2022-07-17T08:38:04;2.10;;;0.80;;
53010;SDS011;42803;55.762;38.084;2022-07-17T08:40:35;1.52;;;0.80;;
53010;SDS011;42803;55.762;38.084;2022-07-17T08:43:07;2.75;;;0.90;;
53010;SDS011;42803;55.762;38.084;2022-07-17T08:45:37;1.48;;;0.68;;
53010;SDS011;42803;55.762;38.084;2022-07-17T08:48:14;0.65;;;0.55;;
53010;SDS011;42803;55.762;38.084;2022-07-17T08:50:46;2.70;;;1.08;;
53010;SDS011;42803;55.762;38.084;2022-07-17T08:53:16;2.95;;;0.80;;
53010;SDS011;42803;55.762;38.084;2022-07-17T08:55:45;1.58;;;0.90;;
53010;SDS011;42803;55.762;38.084;2022-07-17T08:58:16;2.38;;;1.10;;
53010;SDS011;42803;55.762;38.084;2022-07-17T09:00:45;1.48;;;0.90;;
53010;SDS011;42803;55.762;38.084;2022-07-17T09:03:17;2.30;;;0.93;;
53010;SDS011;42803;55.762;38.084;2022-07-17T09:05:47;0.65;;;0.60;;
53010;SDS011;42803;55.762;38.084;2022-07-17T09:08:17;1.05;;;0.70;;
53010;SDS011;42803;55.762;38.084;2022-07-17T09:10:49;1.42;;;0.80;;
53010;SDS011;42803;55.762;38.084;2022-07-17T09:13:22;1.77;;;0.80;;
53010;SDS011;42803;55.762;38.084;2022-07-17T09:15:56;2.75;;;1.08;;
53010;SDS011;42803;55.762;38.084;2022-07-17T09:18:26;1.30;;;0.90;;
53010;SDS011;42803;55.762;38.084;2022-07-17T09:20:57;1.58;;;1.17;;
53010;SDS011;42803;55.762;38.084;2022-07-17T09:23:30;1.95;;;1.05;;
53010;SDS011;42803;55.762;38.084;2022-07-17T09:25:59;4.00;;;1.20;;
53010;SDS011;42803;55.762;38.084;2022-07-17T09:28:29;2.70;;;1.00;;
53010;SDS011;42803;55.762;38.084;2022-07-17T09:30:58;1.60;;;1.00;;
53010;SDS011;42803;55.762;38.084;2022-07-17T09:33:28;2.45;;;0.82;;
53010;SDS011;42803;55.762;38.084;2022-07-17T09:36:05;1.55;;;1.00;;
53010;SDS011;42803;55.762;38.084;2022-07-17T09:38:36;1.10;;;0.80;;
53010;SDS011;42803;55.762;38.084;2022-07-17T09:41:08;2.95;;;1.00;;
53010;SDS011;42803;55.762;38.084;2022-07-17T09:43:44;3.87;;;1.00;;
53010;SDS011;42803;55.762;38.084;2022-07-17T09:46:15;1.98;;;1.17;;
53010;SDS011;42803;55.762;38.084;2022-07-17T09:48:48;3.58;;;1.23;;
53010;SDS011;42803;55.762;38.084;2022-07-17T09:51:19;1.95;;;1.35;;
53010;SDS011;42803;55.762;38.084;2022-07-17T09:53:51;1.63;;;1.00;;
53010;SDS011;42803;55.762;38.084;2022-07-17T09:56:23;2.53;;;1.00;;
53010;SDS011;42803;55.762;38.084;2022-07-17T09:58:56;1.67;;;0.95;;
53010;SDS011;42803;55.762;38.084;2022-07-17T10:01:30;1.95;;;1.10;;
53010;SDS011;42803;55.762;38.084;2022-07-17T10:04:01;3.28;;;1.05;;
53010;SDS011;42803;55.762;38.084;2022-07-17T10:06:31;4.57;;;1.17;;
53010;SDS011;42803;55.762;38.084;2022-07-17T10:09:00;2.20;;;0.93;;
53010;SDS011;42803;55.762;38.084;2022-07-17T10:11:32;3.20;;;1.20;;
53010;SDS011;42803;55.762;38.084;2022-07-17T10:14:14;3.78;;;1.05;;
53010;SDS011;42803;55.762;38.084;2022-07-17T10:16:46;3.28;;;0.82;;
53010;SDS011;42803;55.762;38.084;2022-07-17T10:19:15;2.88;;;0.90;;
53010;SDS011;42803;55.762;38.084;2022-07-17T10:21:52;1.15;;;0.80;;
53010;SDS011;42803;55.762;38.084;2022-07-17T10:24:24;3.40;;;0.90;;
53010;SDS011;42803;55.762;38.084;2022-07-17T10:26:53;1.50;;;0.90;;
53010;SDS011;42803;55.762;38.084;2022-07-17T10:29:28;1.00;;;0.90;;
53010;SDS011;42803;55.762;38.084;2022-07-17T10:32:00;1.92;;;0.70;;
53010;SDS011;42803;55.762;38.084;2022-07-17T10:34:36;1.17;;;0.50;;
53010;SDS011;42803;55.762;38.084;2022-07-17T10:37:13;1.02;;;0.70;;
53010;SDS011;42803;55.762;38.084;2022-07-17T10:39:56;1.02;;;0.63;;
53010;SDS011;42803;55.762;38.084;2022-07-17T10:42:40;0.77;;;0.60;;
53010;SDS011;42803;55.762;38.084;2022-07-17T10:45:21;2.33;;;0.70;;
53010;SDS011;42803;55.762;38.084;2022-07-17T10:47:53;2.65;;;0.80;;
53010;SDS011;42803;55.762;38.084;2022-07-17T10:50:27;2.35;;;0.60;;
53010;SDS011;42803;55.762;38.084;2022-07-17T10:52:59;0.98;;;0.60;;
53010;SDS011;42803;55.762;38.084;2022-07-17T10:55:30;1.95;;;0.70;;
53010;SDS011;42803;55.762;38.084;2022-07-17T10:58:00;1.13;;;0.77;;
53010;SDS011;42803;55.762;38.084;2022-07-17T11:00:33;1.33;;;0.85;;
53010;SDS011;42803;55.762;38.084;2022-07-17T11:03:09;2.67;;;0.80;;
53010;SDS011;42803;55.762;38.084;2022-07-17T11:05:39;2.10;;;0.90;;
53010;SDS011;42803;55.762;38.084;2022-07-17T11:08:08;0.80;;;0.57;;
53010;SDS011;42803;55.762;38.084;2022-07-17T11:10:38;3.13;;;0.70;;
53010;SDS011;42803;55.762;38.084;2022-07-17T11:13:08;1.88;;;0.85;;
53010;SDS011;42803;55.762;38.084;2022-07-17T11:15:42;2.42;;;0.80;;
53010;SDS011;42803;55.762;38.084;2022-07-17T11:18:13;2.15;;;0.93;;
53010;SDS011;42803;55.762;38.084;2022-07-17T11:20:47;2.78;;;0.80;;
53010;SDS011;42803;55.762;38.084;2022-07-17T11:23:18;1.73;;;0.70;;
53010;SDS011;42803;55.762;38.084;2022-07-17T11:25:52;1.55;;;0.82;;
53010;SDS011;42803;55.762;38.084;2022-07-17T11:28:26;2.05;;;0.90;;
53010;SDS011;42803;55.762;38.084;2022-07-17T11:31:02;2.92;;;1.02;;
53010;SDS011;42803;55.762;38.084;2022-07-17T11:33:33;1.23;;;0.70;;
53010;SDS011;42803;55.762;38.084;2022-07-17T11:36:02;1.23;;;0.90;;
53010;SDS011;42803;55.762;38.084;2022-07-17T11:38:33;1.80;;;0.82;;
53010;SDS011;42803;55.762;38.084;2022-07-17T11:41:04;1.95;;;1.10;;
53010;SDS011;42803;55.762;38.084;2022-07-17T11:43:38;2.33;;;0.88;;
53010;SDS011;42803;55.762;38.084;2022-07-17T11:46:11;1.40;;;0.90;;
53010;SDS011;42803;55.762;38.084;2022-07-17T11:48:42;2.30;;;0.60;;
53010;SDS011;42803;55.762;38.084;2022-07-17T11:51:12;1.20;;;0.77;;
53010;SDS011;42803;55.762;38.084;2022-07-17T11:53:41;5.63;;;1.10;;
53010;SDS011;42803;55.762;38.084;2022-07-17T11:56:18;4.82;;;1.00;;
53010;SDS011;42803;55.762;38.084;2022-07-17T11:58:49;1.10;;;0.73;;
53010;SDS011;42803;55.762;38.084;2022-07-17T12:01:27;2.15;;;0.95;;
53010;SDS011;42803;55.762;38.084;2022-07-17T12:04:00;2.20;;;1.17;;
53010;SDS011;42803;55.762;38.084;2022-07-17T12:06:31;2.83;;;1.00;;
53010;SDS011;42803;55.762;38.084;2022-07-17T12:09:00;1.45;;;0.95;;
53010;SDS011;42803;55.762;38.084;2022-07-17T12:11:30;1.85;;;0.88;;
53010;SDS011;42803;55.762;38.084;2022-07-17T12:14:03;1.23;;;0.90;;
53010;SDS011;42803;55.762;38.084;2022-07-17T12:16:36;1.95;;;1.08;;
53010;SDS011;42803;55.762;38.084;2022-07-17T12:19:07;1.38;;;0.80;;
53010;SDS011;42803;55.762;38.084;2022-07-17T12:21:52;1.70;;;1.10;;
53010;SDS011;42803;55.762;38.084;2022-07-17T12:24:24;1.75;;;0.77;;
53010;SDS011;42803;55.762;38.084;2022-07-17T12:26:55;3.30;;;1.00;;
53010;SDS011;42803;55.762;38.084;2022-07-17T12:29:26;2.97;;;0.85;;
53010;SDS011;42803;55.762;38.084;2022-07-17T12:32:04;2.08;;;1.05;;
53010;SDS011;42803;55.762;38.084;2022-07-17T12:34:37;1.50;;;0.80;;
53010;SDS011;42803;55.762;38.084;2022-07-17T12:37:12;3.97;;;0.90;;
53010;SDS011;42803;55.762;38.084;2022-07-17T12:39:42;3.22;;;1.10;;
53010;SDS011;42803;55.762;38.084;2022-07-17T12:42:12;2.45;;;1.17;;
53010;SDS011;42803;55.762;38.084;2022-07-17T12:44:41;1.02;;;0.90;;
53010;SDS011;42803;55.762;38.084;2022-07-17T12:47:13;5.13;;;0.85;;
53010;SDS011;42803;55.762;38.084;2022-07-17T12:49:42;1.58;;;0.93;;
53010;SDS011;42803;55.762;38.084;2022-07-17T12:52:11;2.75;;;0.95;;
53010;SDS011;42803;55.762;38.084;2022-07-17T12:54:41;1.45;;;1.15;;
53010;SDS011;42803;55.762;38.084;2022-07-17T12:57:10;2.15;;;1.00;;
53010;SDS011;42803;55.762;38.084;2022-07-17T12:59:40;1.38;;;1.10;;
53010;SDS011;42803;55.762;38.084;2022-07-17T13:02:09;2.38;;;0.95;;
53010;SDS011;42803;55.762;38.084;2022-07-17T13:04:40;0.90;;;0.70;;
53010;SDS011;42803;55.762;38.084;2022-07-17T13:07:09;1.60;;;1.00;;
53010;SDS011;42803;55.762;38.084;2022-07-17T13:09:38;1.67;;;0.90;;
53010;SDS011;42803;55.762;38.084;2022-07-17T13:12:08;5.57;;;0.88;;
53010;SDS011;42803;55.762;38.084;2022-07-17T13:14:37;2.42;;;0.88;;
53010;SDS011;42803;55.762;38.084;2022-07-17T13:17:07;2.25;;;0.80;;
53010;SDS011;42803;55.762;38.084;2022-07-17T13:19:36;1.98;;;1.00;;
53010;SDS011;42803;55.762;38.084;2022-07-17T13:22:07;1.30;;;0.90;;
53010;SDS011;42803;55.762;38.084;2022-07-17T13:24:36;1.45;;;0.80;;
53010;SDS011;42803;55.762;38.084;2022-07-17T13:27:05;2.55;;;1.08;;
53010;SDS011;42803;55.762;38.084;2022-07-17T13:29:34;2.58;;;0.90;;
53010;SDS011;42803;55.762;38.084;2022-07-17T13:32:04;2.85;;;1.00;;
53010;SDS011;42803;55.762;38.084;2022-07-17T13:34:34;1.45;;;1.00;;
53010;SDS011;42803;55.762;38.084;2022-07-17T13:37:03;3.55;;;0.75;;
53010;SDS011;42803;55.762;38.084;2022-07-17T13:39:36;2.42;;;0.77;;
53010;SDS011;42803;55.762;38.084;2022-07-17T13:42:05;2.42;;;0.82;;
53010;SDS011;42803;55.762;38.084;2022-07-17T13:44:35;3.15;;;0.90;;
53010;SDS011;42803;55.762;38.084;2022-07-17T13:47:05;1.40;;;0.77;;
53010;SDS011;42803;55.762;38.084;2022-07-17T13:49:34;1.10;;;1.00;;
53010;SDS011;42803;55.762;38.084;2022-07-17T13:52:04;1.73;;;0.88;;
53010;SDS011;42803;55.762;38.084;2022-07-17T13:54:33;1.55;;;0.80;;
53010;SDS011;42803;55.762;38.084;2022-07-17T13:57:04;1.55;;;0.80;;
53010;SDS011;42803;55.762;38.084;2022-07-17T13:59:33;2.00;;;0.80;;
53010;SDS011;42803;55.762;38.084;2022-07-17T14:02:02;1.17;;;0.77;;
53010;SDS011;42803;55.762;38.084;2022-07-17T14:04:31;2.47;;;0.82;;
53010;SDS011;42803;55.762;38.084;2022-07-17T14:07:00;1.85;;;0.90;;
53010;SDS011;42803;55.762;38.084;2022-07-17T14:09:29;0.85;;;0.85;;
53010;SDS011;42803;55.762;38.084;2022-07-17T14:11:58;1.38;;;0.77;;
53010;SDS011;42803;55.762;38.084;2022-07-17T14:14:29;0.82;;;0.75;;
53010;SDS011;42803;55.762;38.084;2022-07-17T14:16:58;1.33;;;0.80;;
53010;SDS011;42803;55.762;38.084;2022-07-17T14:19:28;2.13;;;0.73;;
53010;SDS011;42803;55.762;38.084;2022-07-17T14:21:57;2.60;;;0.80;;
53010;SDS011;42803;55.762;38.084;2022-07-17T14:24:26;1.73;;;0.80;;
53010;SDS011;42803;55.762;38.084;2022-07-17T14:26:55;5.38;;;0.90;;
53010;SDS011;42803;55.762;38.084;2022-07-17T14:29:24;6.15;;;1.17;;
53010;SDS011;42803;55.762;38.084;2022-07-17T14:31:54;2.03;;;1.00;;
53010;SDS011;42803;55.762;38.084;2022-07-17T14:34:24;1.92;;;0.70;;
53010;SDS011;42803;55.762;38.084;2022-07-17T14:36:53;1.45;;;1.10;;
53010;SDS011;42803;55.762;38.084;2022-07-17T14:39:22;1.48;;;1.10;;
53010;SDS011;42803;55.762;38.084;2022-07-17T14:41:51;3.10;;;0.85;;
53010;SDS011;42803;55.762;38.084;2022-07-17T14:44:21;4.13;;;1.10;;
53010;SDS011;42803;55.762;38.084;2022-07-17T14:46:50;1.50;;;1.00;;